sensor_id;sensor_type;location;lat;lon;timestamp;temperature;humidity
48212;DHT22;34000;48.772;9.162;2022-09-12T00:01:41;18.00;62.40
48212;DHT22;34000;48.772;9.162;2022-09-12T00:04:09;17.90;62.50
48212;DHT22;34000;48.772;9.162;2022-09-12T00:06:36;17.80;62.60
48212;DHT22;34000;48.772;9.162;2022-09-12T00:09:08;17.80;62.70
48212;DHT22;34000;48.772;9.162;2022-09-12T00:11:34;17.80;62.80
48212;DHT22;34000;48.772;9.162;2022-09-12T00:14:01;17.80;62.70
48212;DHT22;34000;48.772;9.162;2022-09-12T00:16:29;17.80;62.40
48212;DHT22;34000;48.772;9.162;2022-09-12T00:18:55;17.80;62.50
48212;DHT22;34000;48.772;9.162;2022-09-12T00:21:21;17.90;62.60
48212;DHT22;34000;48.772;9.162;2022-09-12T00:23:48;17.90;62.70
48212;DHT22;34000;48.772;9.162;2022-09-12T00:26:15;17.90;62.70
48212;DHT22;34000;48.772;9.162;2022-09-12T00:28:42;17.80;62.70
48212;DHT22;34000;48.772;9.162;2022-09-12T00:31:11;17.90;62.90
48212;DHT22;34000;48.772;9.162;2022-09-12T00:33:37;17.90;62.90
48212;DHT22;34000;48.772;9.162;2022-09-12T00:36:05;17.90;62.90
48212;DHT22;34000;48.772;9.162;2022-09-12T00:38:31;17.80;63.00
48212;DHT22;34000;48.772;9.162;2022-09-12T00:40:57;17.70;63.10
48212;DHT22;34000;48.772;9.162;2022-09-12T00:45:56;17.70;63.40
48212;DHT22;34000;48.772;9.162;2022-09-12T00:48:27;17.70;63.40
48212;DHT22;34000;48.772;9.162;2022-09-12T00:50:55;17.60;63.60
48212;DHT22;34000;48.772;9.162;2022-09-12T00:53:20;17.60;63.60
48212;DHT22;34000;48.772;9.162;2022-09-12T00:55:48;17.60;63.60
48212;DHT22;34000;48.772;9.162;2022-09-12T00:58:24;17.50;63.60
48212;DHT22;34000;48.772;9.162;2022-09-12T01:00:52;17.50;64.30
48212;DHT22;34000;48.772;9.162;2022-09-12T01:03:20;17.50;63.70
48212;DHT22;34000;48.772;9.162;2022-09-12T01:06:00;17.40;63.80
48212;DHT22;34000;48.772;9.162;2022-09-12T01:10:55;17.30;63.50
48212;DHT22;34000;48.772;9.162;2022-09-12T01:13:21;17.20;64.10
48212;DHT22;34000;48.772;9.162;2022-09-12T01:15:47;17.20;64.30
48212;DHT22;34000;48.772;9.162;2022-09-12T01:21:12;17.10;64.20
48212;DHT22;34000;48.772;9.162;2022-09-12T01:26:56;16.90;64.80
48212;DHT22;34000;48.772;9.162;2022-09-12T01:29:42;16.90;64.90
48212;DHT22;34000;48.772;9.162;2022-09-12T01:40:28;16.80;64.70
48212;DHT22;34000;48.772;9.162;2022-09-12T01:43:14;16.80;64.70
48212;DHT22;34000;48.772;9.162;2022-09-12T01:45:52;16.80;64.70
48212;DHT22;34000;48.772;9.162;2022-09-12T01:48:25;16.80;64.90
48212;DHT22;34000;48.772;9.162;2022-09-12T01:50:58;16.80;64.90
48212;DHT22;34000;48.772;9.162;2022-09-12T01:53:31;16.80;65.50
48212;DHT22;34000;48.772;9.162;2022-09-12T01:56:21;16.80;64.90
48212;DHT22;34000;48.772;9.162;2022-09-12T01:59:03;16.80;64.90
48212;DHT22;34000;48.772;9.162;2022-09-12T02:01:32;16.80;64.90
48212;DHT22;34000;48.772;9.162;2022-09-12T02:04:12;16.80;64.80
48212;DHT22;34000;48.772;9.162;2022-09-12T02:06:45;16.80;64.80
48212;DHT22;34000;48.772;9.162;2022-09-12T02:09:30;16.80;64.90
48212;DHT22;34000;48.772;9.162;2022-09-12T02:12:00;16.70;64.90
48212;DHT22;34000;48.772;9.162;2022-09-12T02:14:31;16.80;64.90
48212;DHT22;34000;48.772;9.162;2022-09-12T02:17:16;16.80;64.90
48212;DHT22;34000;48.772;9.162;2022-09-12T02:19:46;16.80;65.00
48212;DHT22;34000;48.772;9.162;2022-09-12T02:22:16;16.80;64.80
48212;DHT22;34000;48.772;9.162;2022-09-12T02:24:46;16.90;64.90
48212;DHT22;34000;48.772;9.162;2022-09-12T02:27:15;16.80;64.80
48212;DHT22;34000;48.772;9.162;2022-09-12T02:29:43;16.90;64.90
48212;DHT22;34000;48.772;9.162;2022-09-12T02:32:34;16.80;65.00
48212;DHT22;34000;48.772;9.162;2022-09-12T02:35:10;16.80;65.20
48212;DHT22;34000;48.772;9.162;2022-09-12T02:40:09;16.80;65.10
48212;DHT22;34000;48.772;9.162;2022-09-12T02:42:35;16.80;65.20
48212;DHT22;34000;48.772;9.162;2022-09-12T02:45:02;16.70;65.30
48212;DHT22;34000;48.772;9.162;2022-09-12T02:47:38;16.70;65.40
48212;DHT22;34000;48.772;9.162;2022-09-12T02:50:06;16.70;65.50
48212;DHT22;34000;48.772;9.162;2022-09-12T02:52:33;16.70;65.50
48212;DHT22;34000;48.772;9.162;2022-09-12T02:55:00;16.70;65.50
48212;DHT22;34000;48.772;9.162;2022-09-12T02:57:26;16.60;65.50
48212;DHT22;34000;48.772;9.162;2022-09-12T02:59:54;16.60;65.60
48212;DHT22;34000;48.772;9.162;2022-09-12T03:05:33;16.60;65.80
48212;DHT22;34000;48.772;9.162;2022-09-12T03:24:19;16.70;66.00
48212;DHT22;34000;48.772;9.162;2022-09-12T03:26:55;16.70;65.50
48212;DHT22;34000;48.772;9.162;2022-09-12T03:29:25;16.70;65.50
48212;DHT22;34000;48.772;9.162;2022-09-12T03:31:56;16.70;65.50
48212;DHT22;34000;48.772;9.162;2022-09-12T03:34:23;16.70;65.50
48212;DHT22;34000;48.772;9.162;2022-09-12T03:36:49;16.70;65.50
48212;DHT22;34000;48.772;9.162;2022-09-12T03:39:16;16.60;66.00
48212;DHT22;34000;48.772;9.162;2022-09-12T03:41:41;16.60;65.50
48212;DHT22;34000;48.772;9.162;2022-09-12T03:44:07;16.60;65.70
48212;DHT22;34000;48.772;9.162;2022-09-12T03:46:33;16.60;65.70
48212;DHT22;34000;48.772;9.162;2022-09-12T03:48:58;16.60;65.80
48212;DHT22;34000;48.772;9.162;2022-09-12T03:51:24;16.50;65.80
48212;DHT22;34000;48.772;9.162;2022-09-12T03:53:50;16.50;65.90
48212;DHT22;34000;48.772;9.162;2022-09-12T03:56:15;16.50;66.00
48212;DHT22;34000;48.772;9.162;2022-09-12T03:58:42;16.40;66.00
48212;DHT22;34000;48.772;9.162;2022-09-12T04:01:18;16.40;66.10
48212;DHT22;34000;48.772;9.162;2022-09-12T04:03:46;16.30;66.30
48212;DHT22;34000;48.772;9.162;2022-09-12T04:06:14;16.20;66.20
48212;DHT22;34000;48.772;9.162;2022-09-12T04:08:41;16.20;66.30
48212;DHT22;34000;48.772;9.162;2022-09-12T04:11:14;16.20;66.30
48212;DHT22;34000;48.772;9.162;2022-09-12T04:13:42;16.20;66.40
48212;DHT22;34000;48.772;9.162;2022-09-12T04:16:08;16.10;66.30
48212;DHT22;34000;48.772;9.162;2022-09-12T04:18:35;16.10;66.30
48212;DHT22;34000;48.772;9.162;2022-09-12T04:21:05;16.10;66.40
48212;DHT22;34000;48.772;9.162;2022-09-12T04:23:31;16.10;66.50
48212;DHT22;34000;48.772;9.162;2022-09-12T04:25:59;16.10;66.50
48212;DHT22;34000;48.772;9.162;2022-09-12T04:28:26;16.10;66.50
48212;DHT22;34000;48.772;9.162;2022-09-12T04:30:53;16.00;66.50
48212;DHT22;34000;48.772;9.162;2022-09-12T04:33:19;16.00;66.60
48212;DHT22;34000;48.772;9.162;2022-09-12T04:35:45;15.90;66.60
48212;DHT22;34000;48.772;9.162;2022-09-12T04:38:10;15.90;66.60
48212;DHT22;34000;48.772;9.162;2022-09-12T04:40:36;15.90;66.70
48212;DHT22;34000;48.772;9.162;2022-09-12T04:43:03;15.90;66.80
48212;DHT22;34000;48.772;9.162;2022-09-12T04:45:28;15.80;66.70
48212;DHT22;34000;48.772;9.162;2022-09-12T04:47:54;15.90;66.80
48212;DHT22;34000;48.772;9.162;2022-09-12T04:50:20;15.80;66.80
48212;DHT22;34000;48.772;9.162;2022-09-12T04:52:52;15.80;66.80
48212;DHT22;34000;48.772;9.162;2022-09-12T04:55:19;15.80;67.00
48212;DHT22;34000;48.772;9.162;2022-09-12T04:57:45;15.80;66.90
48212;DHT22;34000;48.772;9.162;2022-09-12T05:00:11;15.80;66.90
48212;DHT22;34000;48.772;9.162;2022-09-12T05:02:38;15.80;66.90
48212;DHT22;34000;48.772;9.162;2022-09-12T05:05:04;15.80;66.90
48212;DHT22;34000;48.772;9.162;2022-09-12T05:07:29;15.70;66.80
48212;DHT22;34000;48.772;9.162;2022-09-12T05:09:55;15.70;66.90
48212;DHT22;34000;48.772;9.162;2022-09-12T05:12:21;15.70;66.90
48212;DHT22;34000;48.772;9.162;2022-09-12T05:14:46;15.70;66.90
48212;DHT22;34000;48.772;9.162;2022-09-12T05:17:12;15.70;66.90
48212;DHT22;34000;48.772;9.162;2022-09-12T05:19:37;15.70;67.00
48212;DHT22;34000;48.772;9.162;2022-09-12T05:22:03;15.70;67.10
48212;DHT22;34000;48.772;9.162;2022-09-12T05:24:31;15.70;67.10
48212;DHT22;34000;48.772;9.162;2022-09-12T05:26:57;15.80;67.10
48212;DHT22;34000;48.772;9.162;2022-09-12T05:29:23;15.90;67.00
48212;DHT22;34000;48.772;9.162;2022-09-12T05:31:49;15.90;66.90
48212;DHT22;34000;48.772;9.162;2022-09-12T05:34:16;16.00;66.80
48212;DHT22;34000;48.772;9.162;2022-09-12T05:36:42;16.00;66.70
48212;DHT22;34000;48.772;9.162;2022-09-12T05:39:07;16.00;66.70
48212;DHT22;34000;48.772;9.162;2022-09-12T05:41:33;15.90;66.70
48212;DHT22;34000;48.772;9.162;2022-09-12T05:44:02;15.90;66.70
48212;DHT22;34000;48.772;9.162;2022-09-12T05:46:30;15.90;66.90
48212;DHT22;34000;48.772;9.162;2022-09-12T05:49:02;15.90;66.90
48212;DHT22;34000;48.772;9.162;2022-09-12T05:51:31;15.90;66.90
48212;DHT22;34000;48.772;9.162;2022-09-12T05:53:59;15.90;66.90
48212;DHT22;34000;48.772;9.162;2022-09-12T05:56:30;16.00;66.90
48212;DHT22;34000;48.772;9.162;2022-09-12T05:59:00;15.90;66.80
48212;DHT22;34000;48.772;9.162;2022-09-12T06:01:27;16.00;66.80
48212;DHT22;34000;48.772;9.162;2022-09-12T06:03:54;16.00;66.70
48212;DHT22;34000;48.772;9.162;2022-09-12T06:06:22;16.00;66.70
48212;DHT22;34000;48.772;9.162;2022-09-12T06:08:50;16.00;66.70
48212;DHT22;34000;48.772;9.162;2022-09-12T06:11:21;16.10;66.60
48212;DHT22;34000;48.772;9.162;2022-09-12T06:13:47;16.10;66.60
48212;DHT22;34000;48.772;9.162;2022-09-12T06:16:21;16.10;66.60
48212;DHT22;34000;48.772;9.162;2022-09-12T06:18:48;16.20;66.70
48212;DHT22;34000;48.772;9.162;2022-09-12T06:21:15;16.30;66.60
48212;DHT22;34000;48.772;9.162;2022-09-12T06:23:41;16.30;66.70
48212;DHT22;34000;48.772;9.162;2022-09-12T06:26:09;16.30;66.70
48212;DHT22;34000;48.772;9.162;2022-09-12T06:28:39;16.30;66.80
48212;DHT22;34000;48.772;9.162;2022-09-12T06:31:10;16.40;66.90
48212;DHT22;34000;48.772;9.162;2022-09-12T06:33:39;16.40;67.00
48212;DHT22;34000;48.772;9.162;2022-09-12T06:36:07;16.50;67.00
48212;DHT22;34000;48.772;9.162;2022-09-12T06:38:33;16.50;67.00
48212;DHT22;34000;48.772;9.162;2022-09-12T06:40:59;16.60;67.00
48212;DHT22;34000;48.772;9.162;2022-09-12T06:43:26;16.70;66.90
48212;DHT22;34000;48.772;9.162;2022-09-12T06:45:52;17.10;66.50
48212;DHT22;34000;48.772;9.162;2022-09-12T06:48:18;17.60;65.70
48212;DHT22;34000;48.772;9.162;2022-09-12T06:50:54;18.20;64.70
48212;DHT22;34000;48.772;9.162;2022-09-12T06:53:20;18.60;63.60
48212;DHT22;34000;48.772;9.162;2022-09-12T06:55:46;19.00;63.00
48212;DHT22;34000;48.772;9.162;2022-09-12T06:58:12;19.30;62.40
48212;DHT22;34000;48.772;9.162;2022-09-12T07:00:38;19.60;61.90
48212;DHT22;34000;48.772;9.162;2022-09-12T07:03:04;19.90;61.40
48212;DHT22;34000;48.772;9.162;2022-09-12T07:05:29;20.30;60.60
48212;DHT22;34000;48.772;9.162;2022-09-12T07:07:57;20.70;59.60
48212;DHT22;34000;48.772;9.162;2022-09-12T07:12:49;22.00;56.80
48212;DHT22;34000;48.772;9.162;2022-09-12T07:15:15;22.70;55.60
48212;DHT22;34000;48.772;9.162;2022-09-12T07:17:41;23.40;53.80
48212;DHT22;34000;48.772;9.162;2022-09-12T07:20:07;24.10;52.40
48212;DHT22;34000;48.772;9.162;2022-09-12T07:22:32;25.00;50.70
48212;DHT22;34000;48.772;9.162;2022-09-12T07:24:58;25.80;49.50
48212;DHT22;34000;48.772;9.162;2022-09-12T07:27:23;26.50;48.20
48212;DHT22;34000;48.772;9.162;2022-09-12T07:29:49;27.40;47.60
48212;DHT22;34000;48.772;9.162;2022-09-12T07:32:15;28.80;45.10
48212;DHT22;34000;48.772;9.162;2022-09-12T07:34:40;29.10;45.00
48212;DHT22;34000;48.772;9.162;2022-09-12T07:39:32;30.50;42.80
48212;DHT22;34000;48.772;9.162;2022-09-12T07:41:57;31.10;47.90
48212;DHT22;34000;48.772;9.162;2022-09-12T07:44:24;31.60;41.50
48212;DHT22;34000;48.772;9.162;2022-09-12T07:46:51;32.20;40.80
48212;DHT22;34000;48.772;9.162;2022-09-12T07:49:16;33.20;39.20
48212;DHT22;34000;48.772;9.162;2022-09-12T07:51:42;33.30;39.30
48212;DHT22;34000;48.772;9.162;2022-09-12T07:56:34;34.70;36.50
48212;DHT22;34000;48.772;9.162;2022-09-12T07:58:59;35.40;36.30
48212;DHT22;34000;48.772;9.162;2022-09-12T08:01:25;36.00;35.60
48212;DHT22;34000;48.772;9.162;2022-09-12T08:03:58;36.50;34.90
48212;DHT22;34000;48.772;9.162;2022-09-12T08:06:26;37.20;34.30
48212;DHT22;34000;48.772;9.162;2022-09-12T08:08:54;37.80;33.50
48212;DHT22;34000;48.772;9.162;2022-09-12T08:11:21;38.40;32.70
48212;DHT22;34000;48.772;9.162;2022-09-12T08:13:48;38.90;32.20
48212;DHT22;34000;48.772;9.162;2022-09-12T08:16:17;39.40;31.70
48212;DHT22;34000;48.772;9.162;2022-09-12T08:18:43;39.70;31.10
48212;DHT22;34000;48.772;9.162;2022-09-12T08:21:44;40.00;30.80
48212;DHT22;34000;48.772;9.162;2022-09-12T08:24:04;40.30;30.30
48212;DHT22;34000;48.772;9.162;2022-09-12T08:26:31;40.60;30.10
48212;DHT22;34000;48.772;9.162;2022-09-12T08:28:57;40.90;29.80
48212;DHT22;34000;48.772;9.162;2022-09-12T08:31:25;41.10;29.60
48212;DHT22;34000;48.772;9.162;2022-09-12T08:33:53;41.50;29.30
48212;DHT22;34000;48.772;9.162;2022-09-12T08:36:22;41.90;29.00
48212;DHT22;34000;48.772;9.162;2022-09-12T08:38:52;42.10;29.10
48212;DHT22;34000;48.772;9.162;2022-09-12T08:41:34;42.40;28.40
48212;DHT22;34000;48.772;9.162;2022-09-12T08:52:32;43.00;27.60
48212;DHT22;34000;48.772;9.162;2022-09-12T08:55:02;43.30;27.40
48212;DHT22;34000;48.772;9.162;2022-09-12T08:57:28;43.40;27.20
48212;DHT22;34000;48.772;9.162;2022-09-12T08:59:54;43.40;27.10
48212;DHT22;34000;48.772;9.162;2022-09-12T09:05:18;43.80;26.70
48212;DHT22;34000;48.772;9.162;2022-09-12T09:16:13;44.80;25.70
48212;DHT22;34000;48.772;9.162;2022-09-12T09:18:43;44.80;25.60
48212;DHT22;34000;48.772;9.162;2022-09-12T09:21:48;44.90;25.60
48212;DHT22;34000;48.772;9.162;2022-09-12T09:24:17;45.20;25.50
48212;DHT22;34000;48.772;9.162;2022-09-12T09:27:03;45.50;25.30
48212;DHT22;34000;48.772;9.162;2022-09-12T09:32:15;45.70;24.40
48212;DHT22;34000;48.772;9.162;2022-09-12T09:34:42;45.60;24.70
48212;DHT22;34000;48.772;9.162;2022-09-12T09:40:23;45.60;24.70
48212;DHT22;34000;48.772;9.162;2022-09-12T09:43:02;45.80;24.60
48212;DHT22;34000;48.772;9.162;2022-09-12T09:45:30;46.10;24.50
48212;DHT22;34000;48.772;9.162;2022-09-12T09:50:35;46.20;24.20
48212;DHT22;34000;48.772;9.162;2022-09-12T09:53:02;46.20;24.00
48212;DHT22;34000;48.772;9.162;2022-09-12T09:55:39;46.20;23.90
48212;DHT22;34000;48.772;9.162;2022-09-12T09:58:05;46.30;23.50
48212;DHT22;34000;48.772;9.162;2022-09-12T10:00:34;46.50;23.40
48212;DHT22;34000;48.772;9.162;2022-09-12T10:03:20;46.80;23.10
48212;DHT22;34000;48.772;9.162;2022-09-12T10:05:57;46.80;23.00
48212;DHT22;34000;48.772;9.162;2022-09-12T10:08:25;46.70;22.90
48212;DHT22;34000;48.772;9.162;2022-09-12T10:13:39;46.70;22.50
48212;DHT22;34000;48.772;9.162;2022-09-12T10:16:17;46.40;22.40
48212;DHT22;34000;48.772;9.162;2022-09-12T10:19:01;46.00;22.30
48212;DHT22;34000;48.772;9.162;2022-09-12T10:21:44;45.90;22.40
48212;DHT22;34000;48.772;9.162;2022-09-12T10:24:29;45.90;22.30
48212;DHT22;34000;48.772;9.162;2022-09-12T10:29:42;45.50;22.10
48212;DHT22;34000;48.772;9.162;2022-09-12T10:32:11;45.60;22.30
48212;DHT22;34000;48.772;9.162;2022-09-12T10:34:43;45.70;22.20
48212;DHT22;34000;48.772;9.162;2022-09-12T10:37:30;46.00;21.90
48212;DHT22;34000;48.772;9.162;2022-09-12T10:39:58;46.50;21.90
48212;DHT22;34000;48.772;9.162;2022-09-12T10:42:53;46.60;22.20
48212;DHT22;34000;48.772;9.162;2022-09-12T10:45:29;46.50;21.50
48212;DHT22;34000;48.772;9.162;2022-09-12T10:47:57;46.30;21.50
48212;DHT22;34000;48.772;9.162;2022-09-12T10:52:52;46.60;21.30
48212;DHT22;34000;48.772;9.162;2022-09-12T10:55:24;46.40;21.20
48212;DHT22;34000;48.772;9.162;2022-09-12T11:00:40;46.20;21.20
48212;DHT22;34000;48.772;9.162;2022-09-12T11:03:40;45.80;21.30
48212;DHT22;34000;48.772;9.162;2022-09-12T11:06:14;45.70;21.40
48212;DHT22;34000;48.772;9.162;2022-09-12T11:08:56;45.90;21.40
48212;DHT22;34000;48.772;9.162;2022-09-12T11:22:34;46.20;20.80
48212;DHT22;34000;48.772;9.162;2022-09-12T11:25:12;45.80;20.80
48212;DHT22;34000;48.772;9.162;2022-09-12T11:30:21;45.40;21.10
48212;DHT22;34000;48.772;9.162;2022-09-12T11:35:22;44.90;21.00
48212;DHT22;34000;48.772;9.162;2022-09-12T11:37:58;44.70;21.00
48212;DHT22;34000;48.772;9.162;2022-09-12T11:40:40;44.50;21.00
48212;DHT22;34000;48.772;9.162;2022-09-12T11:46:24;43.50;21.00
48212;DHT22;34000;48.772;9.162;2022-09-12T11:52:03;42.50;21.80
48212;DHT22;34000;48.772;9.162;2022-09-12T12:00:22;41.20;21.80
48212;DHT22;34000;48.772;9.162;2022-09-12T12:02:34;40.90;21.70
48212;DHT22;34000;48.772;9.162;2022-09-12T12:07:54;39.90;21.80
48212;DHT22;34000;48.772;9.162;2022-09-12T12:12:58;39.40;22.00
48212;DHT22;34000;48.772;9.162;2022-09-12T12:15:25;39.10;22.10
48212;DHT22;34000;48.772;9.162;2022-09-12T12:18:19;38.90;22.30
48212;DHT22;34000;48.772;9.162;2022-09-12T12:20:47;38.50;22.30
48212;DHT22;34000;48.772;9.162;2022-09-12T12:23:23;38.00;22.70
48212;DHT22;34000;48.772;9.162;2022-09-12T12:25:54;37.90;22.80
48212;DHT22;34000;48.772;9.162;2022-09-12T12:31:15;37.40;23.10
48212;DHT22;34000;48.772;9.162;2022-09-12T12:36:34;37.20;23.30
48212;DHT22;34000;48.772;9.162;2022-09-12T12:42:01;36.70;23.60
48212;DHT22;34000;48.772;9.162;2022-09-12T12:47:18;36.10;23.80
48212;DHT22;34000;48.772;9.162;2022-09-12T12:50:02;35.80;24.00
48212;DHT22;34000;48.772;9.162;2022-09-12T12:55:32;35.00;23.90
48212;DHT22;34000;48.772;9.162;2022-09-12T12:58:01;34.70;24.50
48212;DHT22;34000;48.772;9.162;2022-09-12T13:00:32;34.50;24.60
48212;DHT22;34000;48.772;9.162;2022-09-12T13:03:21;34.20;24.70
48212;DHT22;34000;48.772;9.162;2022-09-12T13:05:52;33.90;24.80
48212;DHT22;34000;48.772;9.162;2022-09-12T13:08:30;33.60;24.80
48212;DHT22;34000;48.772;9.162;2022-09-12T13:11:00;33.40;24.90
48212;DHT22;34000;48.772;9.162;2022-09-12T13:13:31;33.10;24.90
48212;DHT22;34000;48.772;9.162;2022-09-12T13:15:58;32.90;25.20
48212;DHT22;34000;48.772;9.162;2022-09-12T13:21:19;32.60;25.50
48212;DHT22;34000;48.772;9.162;2022-09-12T13:26:27;32.40;25.50
48212;DHT22;34000;48.772;9.162;2022-09-12T13:29:20;32.30;25.50
48212;DHT22;34000;48.772;9.162;2022-09-12T13:31:50;32.10;26.00
48212;DHT22;34000;48.772;9.162;2022-09-12T13:34:22;32.00;26.10
48212;DHT22;34000;48.772;9.162;2022-09-12T13:47:46;31.10;25.80
48212;DHT22;34000;48.772;9.162;2022-09-12T13:50:35;31.00;25.90
48212;DHT22;34000;48.772;9.162;2022-09-12T13:53:04;30.90;26.00
48212;DHT22;34000;48.772;9.162;2022-09-12T13:55:37;30.80;26.10
48212;DHT22;34000;48.772;9.162;2022-09-12T14:01:10;30.80;26.10
48212;DHT22;34000;48.772;9.162;2022-09-12T14:03:46;30.80;26.00
48212;DHT22;34000;48.772;9.162;2022-09-12T14:06:50;30.60;26.00
48212;DHT22;34000;48.772;9.162;2022-09-12T14:09:37;30.50;26.00
48212;DHT22;34000;48.772;9.162;2022-09-12T14:12:04;30.50;26.10
48212;DHT22;34000;48.772;9.162;2022-09-12T14:14:39;30.40;26.20
48212;DHT22;34000;48.772;9.162;2022-09-12T14:17:31;30.40;26.40
48212;DHT22;34000;48.772;9.162;2022-09-12T14:20:04;30.40;26.50
48212;DHT22;34000;48.772;9.162;2022-09-12T14:22:31;30.40;26.50
48212;DHT22;34000;48.772;9.162;2022-09-12T14:24:57;30.30;26.20
48212;DHT22;34000;48.772;9.162;2022-09-12T14:27:28;30.30;26.70
48212;DHT22;34000;48.772;9.162;2022-09-12T14:30:05;30.20;26.60
48212;DHT22;34000;48.772;9.162;2022-09-12T14:32:33;30.10;26.70
48212;DHT22;34000;48.772;9.162;2022-09-12T14:35:18;30.10;26.80
48212;DHT22;34000;48.772;9.162;2022-09-12T14:37:47;30.00;26.80
48212;DHT22;34000;48.772;9.162;2022-09-12T14:40:21;30.00;26.90
48212;DHT22;34000;48.772;9.162;2022-09-12T14:42:49;29.90;26.90
48212;DHT22;34000;48.772;9.162;2022-09-12T14:45:23;30.00;27.50
48212;DHT22;34000;48.772;9.162;2022-09-12T14:47:50;29.90;27.10
48212;DHT22;34000;48.772;9.162;2022-09-12T14:50:23;29.90;27.60
48212;DHT22;34000;48.772;9.162;2022-09-12T14:55:44;29.70;27.30
48212;DHT22;34000;48.772;9.162;2022-09-12T14:58:23;29.70;27.30
48212;DHT22;34000;48.772;9.162;2022-09-12T15:06:34;29.30;27.50
48212;DHT22;34000;48.772;9.162;2022-09-12T15:09:06;29.30;27.60
48212;DHT22;34000;48.772;9.162;2022-09-12T15:11:32;29.30;27.50
48212;DHT22;34000;48.772;9.162;2022-09-12T15:14:04;29.10;27.50
48212;DHT22;34000;48.772;9.162;2022-09-12T15:16:30;29.00;27.50
48212;DHT22;34000;48.772;9.162;2022-09-12T15:18:56;28.90;27.60
48212;DHT22;34000;48.772;9.162;2022-09-12T15:21:21;28.90;27.70
48212;DHT22;34000;48.772;9.162;2022-09-12T15:23:48;28.90;27.70
48212;DHT22;34000;48.772;9.162;2022-09-12T15:26:20;28.80;27.70
48212;DHT22;34000;48.772;9.162;2022-09-12T15:28:47;28.90;27.80
48212;DHT22;34000;48.772;9.162;2022-09-12T15:33:47;28.90;28.00
48212;DHT22;34000;48.772;9.162;2022-09-12T15:36:15;28.90;28.00
48212;DHT22;34000;48.772;9.162;2022-09-12T15:38:42;28.90;28.10
48212;DHT22;34000;48.772;9.162;2022-09-12T15:41:14;28.80;28.20
48212;DHT22;34000;48.772;9.162;2022-09-12T15:43:40;28.70;28.30
48212;DHT22;34000;48.772;9.162;2022-09-12T15:46:10;28.60;28.40
48212;DHT22;34000;48.772;9.162;2022-09-12T15:48:36;28.60;28.60
48212;DHT22;34000;48.772;9.162;2022-09-12T15:51:01;28.60;28.60
48212;DHT22;34000;48.772;9.162;2022-09-12T15:53:29;28.50;28.70
48212;DHT22;34000;48.772;9.162;2022-09-12T15:55:55;28.40;28.70
48212;DHT22;34000;48.772;9.162;2022-09-12T15:58:21;28.30;28.80
48212;DHT22;34000;48.772;9.162;2022-09-12T16:00:46;28.30;28.90
48212;DHT22;34000;48.772;9.162;2022-09-12T16:03:23;28.30;29.00
48212;DHT22;34000;48.772;9.162;2022-09-12T16:05:55;28.30;29.10
48212;DHT22;34000;48.772;9.162;2022-09-12T16:08:21;28.30;29.10
48212;DHT22;34000;48.772;9.162;2022-09-12T16:10:50;28.20;29.10
48212;DHT22;34000;48.772;9.162;2022-09-12T16:13:17;28.20;29.20
48212;DHT22;34000;48.772;9.162;2022-09-12T16:15:42;28.20;29.30
48212;DHT22;34000;48.772;9.162;2022-09-12T16:18:08;28.10;29.40
48212;DHT22;34000;48.772;9.162;2022-09-12T16:20:34;28.00;29.50
48212;DHT22;34000;48.772;9.162;2022-09-12T16:22:59;28.00;29.80
48212;DHT22;34000;48.772;9.162;2022-09-12T16:25:25;27.90;29.90
48212;DHT22;34000;48.772;9.162;2022-09-12T16:27:50;27.90;30.00
48212;DHT22;34000;48.772;9.162;2022-09-12T16:30:16;27.80;30.10
48212;DHT22;34000;48.772;9.162;2022-09-12T16:32:42;27.70;30.20
48212;DHT22;34000;48.772;9.162;2022-09-12T16:35:08;27.60;30.30
48212;DHT22;34000;48.772;9.162;2022-09-12T16:37:34;27.50;30.40
48212;DHT22;34000;48.772;9.162;2022-09-12T16:40:00;27.50;30.50
48212;DHT22;34000;48.772;9.162;2022-09-12T16:42:26;27.40;30.60
48212;DHT22;34000;48.772;9.162;2022-09-12T16:44:52;27.30;30.70
48212;DHT22;34000;48.772;9.162;2022-09-12T16:47:17;27.40;35.10
48212;DHT22;34000;48.772;9.162;2022-09-12T16:49:43;27.30;42.50
48212;DHT22;34000;48.772;9.162;2022-09-12T16:52:08;27.10;31.10
48212;DHT22;34000;48.772;9.162;2022-09-12T16:54:34;27.10;31.10
48212;DHT22;34000;48.772;9.162;2022-09-12T16:57:00;27.00;31.20
48212;DHT22;34000;48.772;9.162;2022-09-12T16:59:25;26.90;31.10
48212;DHT22;34000;48.772;9.162;2022-09-12T17:01:51;26.90;31.30
48212;DHT22;34000;48.772;9.162;2022-09-12T17:04:17;26.90;31.20
48212;DHT22;34000;48.772;9.162;2022-09-12T17:06:42;26.90;31.80
48212;DHT22;34000;48.772;9.162;2022-09-12T17:09:08;26.90;31.20
48212;DHT22;34000;48.772;9.162;2022-09-12T17:11:37;26.80;31.20
48212;DHT22;34000;48.772;9.162;2022-09-12T17:14:05;26.80;32.10
48212;DHT22;34000;48.772;9.162;2022-09-12T17:16:34;26.80;32.40
48212;DHT22;34000;48.772;9.162;2022-09-12T17:18:59;26.80;33.30
48212;DHT22;34000;48.772;9.162;2022-09-12T17:21:25;26.80;34.10
48212;DHT22;34000;48.772;9.162;2022-09-12T17:23:50;26.70;31.70
48212;DHT22;34000;48.772;9.162;2022-09-12T17:26:16;26.70;31.80
48212;DHT22;34000;48.772;9.162;2022-09-12T17:28:42;26.60;31.90
48212;DHT22;34000;48.772;9.162;2022-09-12T17:31:10;26.60;32.10
48212;DHT22;34000;48.772;9.162;2022-09-12T17:33:36;26.50;32.90
48212;DHT22;34000;48.772;9.162;2022-09-12T17:36:14;26.40;32.40
48212;DHT22;34000;48.772;9.162;2022-09-12T17:38:42;26.30;32.60
48212;DHT22;34000;48.772;9.162;2022-09-12T17:43:36;26.20;33.00
48212;DHT22;34000;48.772;9.162;2022-09-12T17:46:03;26.10;33.40
48212;DHT22;34000;48.772;9.162;2022-09-12T17:50:55;25.90;33.20
48212;DHT22;34000;48.772;9.162;2022-09-12T17:53:20;25.90;34.20
48212;DHT22;34000;48.772;9.162;2022-09-12T17:55:46;25.70;34.30
48212;DHT22;34000;48.772;9.162;2022-09-12T17:58:12;25.70;34.80
48212;DHT22;34000;48.772;9.162;2022-09-12T18:00:38;25.50;35.00
48212;DHT22;34000;48.772;9.162;2022-09-12T18:03:22;25.50;35.20
48212;DHT22;34000;48.772;9.162;2022-09-12T18:05:54;25.40;35.60
48212;DHT22;34000;48.772;9.162;2022-09-12T18:08:21;25.30;35.90
48212;DHT22;34000;48.772;9.162;2022-09-12T18:10:47;25.20;35.60
48212;DHT22;34000;48.772;9.162;2022-09-12T18:13:13;25.20;35.70
48212;DHT22;34000;48.772;9.162;2022-09-12T18:15:39;25.10;35.90
48212;DHT22;34000;48.772;9.162;2022-09-12T18:18:05;25.10;36.10
48212;DHT22;34000;48.772;9.162;2022-09-12T18:20:31;25.00;36.20
48212;DHT22;34000;48.772;9.162;2022-09-12T18:22:56;25.00;36.50
48212;DHT22;34000;48.772;9.162;2022-09-12T18:25:22;25.00;36.70
48212;DHT22;34000;48.772;9.162;2022-09-12T18:27:48;24.90;36.80
48212;DHT22;34000;48.772;9.162;2022-09-12T18:30:14;24.90;37.00
48212;DHT22;34000;48.772;9.162;2022-09-12T18:32:44;24.80;37.20
48212;DHT22;34000;48.772;9.162;2022-09-12T18:35:10;24.80;37.30
48212;DHT22;34000;48.772;9.162;2022-09-12T18:37:36;24.80;37.50